createdAt,value
2023-02-16T00:01:34.463Z,13.63
2023-02-16T00:04:01.530Z,11.23
2023-02-16T00:06:29.245Z,15.27
2023-02-16T00:08:57.180Z,13.50
2023-02-16T00:11:48.448Z,13.98
2023-02-16T00:14:15.234Z,12.57
2023-02-16T00:16:42.486Z,11.13
2023-02-16T00:19:30.170Z,14.70
2023-02-16T00:21:59.037Z,15.60
2023-02-16T00:24:26.769Z,13.65
2023-02-16T00:26:53.886Z,14.55
2023-02-16T00:29:25.325Z,13.65
2023-02-16T00:31:52.911Z,14.07
2023-02-16T00:34:41.143Z,12.93
2023-02-16T00:37:12.579Z,12.52
2023-02-16T00:39:40.976Z,12.90
2023-02-16T00:42:12.266Z,13.00
2023-02-16T00:45:05.449Z,13.60
2023-02-16T00:47:41.938Z,12.15
2023-02-16T00:50:24.106Z,13.55
2023-02-16T00:52:51.065Z,13.38
2023-02-16T00:55:23.413Z,13.05
2023-02-16T00:57:54.874Z,15.57
2023-02-16T01:00:27.036Z,13.88
2023-02-16T01:02:56.797Z,16.60
2023-02-16T01:05:23.384Z,13.77
2023-02-16T01:08:08.341Z,15.30
2023-02-16T01:10:55.777Z,15.85
2023-02-16T01:13:23.639Z,16.20
2023-02-16T01:15:50.491Z,15.35
2023-02-16T01:18:18.965Z,13.90
2023-02-16T01:20:46.324Z,15.02
2023-02-16T01:23:12.861Z,14.40
2023-02-16T01:25:40.409Z,12.15
2023-02-16T01:28:23.062Z,14.93
2023-02-16T01:30:50.908Z,15.45
2023-02-16T01:33:17.646Z,17.10
2023-02-16T01:35:44.472Z,17.58
2023-02-16T01:38:22.834Z,14.57
2023-02-16T01:40:56.446Z,14.07
2023-02-16T01:43:28.762Z,14.15
2023-02-16T01:46:02.292Z,15.68
2023-02-16T01:48:31.247Z,15.98
2023-02-16T01:51:50.364Z,12.57
2023-02-16T01:54:31.016Z,14.77
2023-02-16T01:57:08.935Z,16.23
2023-02-16T01:59:43.879Z,17.35
2023-02-16T02:02:19.804Z,14.30
2023-02-16T02:05:09.960Z,14.13
2023-02-16T02:07:59.371Z,11.85
2023-02-16T02:10:39.622Z,15.63
2023-02-16T02:13:24.498Z,13.70
2023-02-16T02:15:51.047Z,14.57
2023-02-16T02:18:17.654Z,14.32
2023-02-16T02:21:26.320Z,18.55
2023-02-16T02:24:21.123Z,16.48
2023-02-16T02:27:18.262Z,13.75
2023-02-16T02:30:18.971Z,21.13
2023-02-16T02:34:02.922Z,19.80
2023-02-16T02:36:40.547Z,12.43
2023-02-16T02:39:25.161Z,15.88
2023-02-16T02:42:50.048Z,13.90
2023-02-16T02:45:24.956Z,15.95
2023-02-16T02:47:51.490Z,17.50
2023-02-16T02:50:35.334Z,15.07
2023-02-16T02:53:05.126Z,13.43
2023-02-16T02:55:52.240Z,11.10
2023-02-16T02:58:41.000Z,14.85
2023-02-16T03:01:08.713Z,16.00
2023-02-16T03:03:44.099Z,17.13
2023-02-16T03:06:20.134Z,17.67
2023-02-16T03:08:50.261Z,13.93
2023-02-16T03:11:41.813Z,16.63
2023-02-16T03:14:37.482Z,15.10
2023-02-16T03:17:28.798Z,16.55
2023-02-16T03:20:17.141Z,13.57
2023-02-16T03:23:03.058Z,19.35
2023-02-16T03:25:52.335Z,17.30
2023-02-16T03:28:40.857Z,12.32
2023-02-16T03:31:10.012Z,14.90
2023-02-16T03:36:05.039Z,13.88
2023-02-16T03:38:32.120Z,16.63
2023-02-16T03:40:58.636Z,15.45
2023-02-16T03:43:27.002Z,13.57
2023-02-16T03:45:53.562Z,14.80
2023-02-16T03:48:20.950Z,16.95
2023-02-16T03:50:47.477Z,15.82
2023-02-16T03:53:13.910Z,16.45
2023-02-16T03:55:45.711Z,15.65
2023-02-16T03:58:15.154Z,18.65
2023-02-16T04:00:41.838Z,16.10
2023-02-16T04:03:11.293Z,18.42
2023-02-16T04:05:38.488Z,18.17
2023-02-16T04:08:05.866Z,20.90
2023-02-16T04:10:32.940Z,19.55
2023-02-16T04:12:59.851Z,16.10
2023-02-16T04:15:29.022Z,19.42
2023-02-16T04:20:28.251Z,16.00
2023-02-16T04:22:54.805Z,18.52
2023-02-16T04:25:21.351Z,20.50
2023-02-16T04:27:48.821Z,18.55
2023-02-16T04:30:18.860Z,18.55
2023-02-16T04:32:45.601Z,17.88
2023-02-16T04:35:12.428Z,17.48
2023-02-16T04:37:39.030Z,18.85
2023-02-16T04:40:07.082Z,20.55
2023-02-16T04:42:33.753Z,20.58
2023-02-16T04:45:00.321Z,20.75
2023-02-16T04:47:28.563Z,15.43
2023-02-16T04:49:55.053Z,17.02
2023-02-16T04:52:21.613Z,19.77
2023-02-16T04:54:48.083Z,17.98
2023-02-16T04:57:15.546Z,23.40
2023-02-16T04:59:42.006Z,18.77
2023-02-16T05:02:08.489Z,25.92
2023-02-16T05:04:44.201Z,20.20
2023-02-16T05:07:10.751Z,22.42
2023-02-16T05:09:37.282Z,25.75
2023-02-16T05:12:22.328Z,20.42
2023-02-16T05:14:49.797Z,20.45
2023-02-16T05:17:21.980Z,22.25
2023-02-16T05:19:51.976Z,24.35
2023-02-16T05:22:20.581Z,21.85
2023-02-16T05:24:47.695Z,20.00
2023-02-16T05:27:17.888Z,27.05
2023-02-16T05:29:44.486Z,21.33
2023-02-16T05:32:11.230Z,22.45
2023-02-16T05:34:37.810Z,20.30
2023-02-16T05:37:04.694Z,24.33
2023-02-16T05:39:31.708Z,22.67
2023-02-16T05:41:58.455Z,23.67
2023-02-16T05:44:24.863Z,23.48
2023-02-16T05:46:51.300Z,23.42
2023-02-16T05:49:18.037Z,21.38
2023-02-16T05:51:44.541Z,22.88
2023-02-16T05:54:16.949Z,25.52
2023-02-16T05:56:48.738Z,22.58
2023-02-16T05:59:16.033Z,19.63
2023-02-16T06:01:42.762Z,20.85
2023-02-16T06:04:10.788Z,22.48
2023-02-16T06:06:38.653Z,21.23
2023-02-16T06:09:07.022Z,24.77
2023-02-16T06:11:36.460Z,23.17
2023-02-16T06:14:05.433Z,23.15
2023-02-16T06:16:33.517Z,24.35
2023-02-16T06:19:00.769Z,20.95
2023-02-16T06:21:28.000Z,22.55
2023-02-16T06:23:54.593Z,23.15
2023-02-16T06:26:21.274Z,25.40
2023-02-16T06:28:47.735Z,25.33
2023-02-16T06:31:14.473Z,26.80
2023-02-16T06:33:40.946Z,23.73
2023-02-16T06:36:08.009Z,26.10
2023-02-16T06:38:34.633Z,23.55
2023-02-16T06:41:01.618Z,21.85
2023-02-16T06:43:30.596Z,24.95
2023-02-16T06:45:57.755Z,23.92
2023-02-16T06:48:24.444Z,25.35
2023-02-16T06:50:51.274Z,20.70
2023-02-16T06:53:17.847Z,24.38
2023-02-16T06:55:44.330Z,22.38
2023-02-16T06:58:11.146Z,20.80
2023-02-16T07:00:38.127Z,25.55
2023-02-16T07:03:04.763Z,29.67
2023-02-16T07:05:31.233Z,22.67
2023-02-16T07:07:57.811Z,24.48
2023-02-16T07:10:24.305Z,22.77
2023-02-16T07:12:50.848Z,24.58
2023-02-16T07:15:17.450Z,28.77
2023-02-16T07:17:43.926Z,21.15
2023-02-16T07:20:12.598Z,21.08
2023-02-16T07:22:39.177Z,23.33
2023-02-16T07:25:06.031Z,20.83
2023-02-16T07:27:32.859Z,21.63
2023-02-16T07:29:59.300Z,26.27
2023-02-16T07:32:25.895Z,24.95
2023-02-16T07:34:52.386Z,22.35
2023-02-16T07:37:19.515Z,22.70
2023-02-16T07:39:45.995Z,23.00
2023-02-16T07:42:12.454Z,23.85
2023-02-16T07:44:38.863Z,21.58
2023-02-16T07:47:05.461Z,18.88
2023-02-16T07:49:31.950Z,25.52
2023-02-16T07:51:58.431Z,23.00
2023-02-16T07:54:24.888Z,20.77
2023-02-16T07:56:51.430Z,24.88
2023-02-16T07:59:17.942Z,24.90
2023-02-16T08:01:44.391Z,22.42
2023-02-16T08:04:10.913Z,23.15
2023-02-16T08:06:37.366Z,27.30
2023-02-16T08:09:04.487Z,22.10
2023-02-16T08:11:31.719Z,19.55
2023-02-16T08:14:01.500Z,22.95
2023-02-16T08:16:29.496Z,21.73
2023-02-16T08:18:57.336Z,23.17
2023-02-16T08:21:26.274Z,23.30
2023-02-16T08:23:58.242Z,22.25
2023-02-16T08:26:27.358Z,21.08
2023-02-16T08:28:53.863Z,25.23
2023-02-16T08:31:23.451Z,23.23
2023-02-16T08:33:52.301Z,24.35
2023-02-16T08:36:20.539Z,24.77
2023-02-16T08:38:50.084Z,24.70
2023-02-16T08:41:24.478Z,26.08
2023-02-16T08:43:51.436Z,23.40
2023-02-16T08:46:18.221Z,23.48
2023-02-16T08:48:45.269Z,22.98
2023-02-16T08:51:18.425Z,25.00
2023-02-16T08:53:46.741Z,22.42
2023-02-16T08:56:14.415Z,29.00
2023-02-16T08:58:43.435Z,22.83
2023-02-16T09:03:42.552Z,24.35
2023-02-16T09:06:11.165Z,23.10
2023-02-16T09:08:38.579Z,25.05
2023-02-16T09:11:07.375Z,27.92
2023-02-16T09:13:35.739Z,29.30
2023-02-16T09:16:14.131Z,23.85
2023-02-16T09:18:41.057Z,29.65
2023-02-16T09:21:11.380Z,26.80
2023-02-16T09:23:38.782Z,22.35
2023-02-16T09:26:07.497Z,22.48
2023-02-16T09:28:35.634Z,24.55
2023-02-16T09:31:12.707Z,25.17
2023-02-16T09:33:40.694Z,23.83
2023-02-16T09:36:09.155Z,23.35
2023-02-16T09:38:36.627Z,26.75
2023-02-16T09:41:27.804Z,22.48
2023-02-16T09:47:45.048Z,25.65
2023-02-16T09:50:38.209Z,23.75
2023-02-16T09:53:18.366Z,23.55
2023-02-16T09:55:59.563Z,23.55
2023-02-16T10:01:13.387Z,22.05
2023-02-16T10:04:01.802Z,23.13
2023-02-16T10:06:48.284Z,23.58
2023-02-16T10:09:18.447Z,26.73
2023-02-16T10:12:06.545Z,24.02
2023-02-16T10:14:43.209Z,24.60
2023-02-16T10:17:23.861Z,24.55
2023-02-16T10:19:56.009Z,26.45
2023-02-16T10:22:40.470Z,28.27
2023-02-16T10:25:26.397Z,24.95
2023-02-16T10:28:15.150Z,23.83
2023-02-16T10:30:50.806Z,23.38
2023-02-16T10:33:42.114Z,24.45
2023-02-16T10:36:25.844Z,24.20
2023-02-16T10:39:07.123Z,22.27
2023-02-16T10:42:03.609Z,27.70
2023-02-16T10:44:42.179Z,23.85
2023-02-16T10:47:28.435Z,24.60
2023-02-16T10:49:55.709Z,22.25
2023-02-16T10:52:23.238Z,25.75
2023-02-16T10:54:49.693Z,21.80
2023-02-16T10:57:27.854Z,24.42
2023-02-16T10:59:57.734Z,22.95
2023-02-16T11:02:43.655Z,21.15
2023-02-16T11:05:32.310Z,23.90
2023-02-16T11:08:03.244Z,24.20
2023-02-16T11:10:56.138Z,26.63
2023-02-16T11:13:26.882Z,22.35
2023-02-16T11:15:58.597Z,24.45
2023-02-16T11:18:42.732Z,20.08
2023-02-16T11:21:11.402Z,21.98
2023-02-16T11:23:45.042Z,23.27
2023-02-16T11:26:12.073Z,26.00
2023-02-16T11:28:43.133Z,22.48
2023-02-16T11:31:09.654Z,21.00
2023-02-16T11:33:37.978Z,24.45
2023-02-16T11:36:30.786Z,21.33
2023-02-16T11:39:00.574Z,21.58
2023-02-16T11:41:28.532Z,26.90
2023-02-16T11:43:55.957Z,20.98
2023-02-16T11:46:23.879Z,20.38
2023-02-16T11:48:51.223Z,21.98
2023-02-16T11:51:31.870Z,21.35
2023-02-16T11:54:07.687Z,22.23
2023-02-16T11:56:35.549Z,19.92
2023-02-16T11:59:14.516Z,21.52
2023-02-16T12:01:47.038Z,19.67
2023-02-16T12:04:34.884Z,19.63
2023-02-16T12:07:24.375Z,21.63
2023-02-16T12:10:07.749Z,19.75
2023-02-16T12:12:42.112Z,21.35
2023-02-16T12:15:21.274Z,20.42
2023-02-16T12:17:54.910Z,20.35
2023-02-16T12:20:27.456Z,17.60
2023-02-16T12:23:26.776Z,20.13
2023-02-16T12:26:31.701Z,20.70
2023-02-16T12:29:06.885Z,21.50
2023-02-16T12:31:59.221Z,20.77
2023-02-16T12:34:38.154Z,23.05
2023-02-16T12:37:21.111Z,21.70
2023-02-16T12:40:02.133Z,19.73
2023-02-16T12:45:03.737Z,20.77
2023-02-16T12:47:34.790Z,21.85
2023-02-16T12:50:27.883Z,21.13
2023-02-16T12:52:57.732Z,18.58
2023-02-16T12:55:44.306Z,18.88
2023-02-16T12:58:23.146Z,19.60
2023-02-16T13:00:56.288Z,17.80
2023-02-16T13:03:39.455Z,19.23
2023-02-16T13:06:18.345Z,18.98
2023-02-16T13:08:51.471Z,18.42
2023-02-16T13:11:24.613Z,20.08
2023-02-16T13:13:56.790Z,18.08
2023-02-16T13:16:42.118Z,15.38
2023-02-16T13:19:13.252Z,19.92
2023-02-16T13:21:58.341Z,18.67
2023-02-16T13:24:31.061Z,17.52
2023-02-16T13:27:16.418Z,17.95
2023-02-16T13:30:22.591Z,20.65
2023-02-16T13:33:38.454Z,18.70
2023-02-16T13:36:23.177Z,20.70
2023-02-16T13:39:21.390Z,17.73
2023-02-16T13:42:02.570Z,20.58
2023-02-16T13:44:48.973Z,20.15
2023-02-16T13:47:20.839Z,20.33
2023-02-16T13:49:48.141Z,18.30
2023-02-16T13:52:34.330Z,16.73
2023-02-16T13:55:03.365Z,18.50
2023-02-16T13:57:52.089Z,19.35
2023-02-16T14:00:35.765Z,19.02
2023-02-16T14:03:05.382Z,18.17
2023-02-16T14:05:35.562Z,18.75
2023-02-16T14:08:25.071Z,17.63
2023-02-16T14:10:55.067Z,19.77
2023-02-16T14:13:24.706Z,16.63
2023-02-16T14:15:53.029Z,19.08
2023-02-16T14:18:56.076Z,17.70
2023-02-16T14:21:37.735Z,16.95
2023-02-16T14:24:08.583Z,16.75
2023-02-16T14:26:52.823Z,15.65
2023-02-16T14:29:24.171Z,17.30
2023-02-16T14:32:01.860Z,19.13
2023-02-16T14:34:44.410Z,19.20
2023-02-16T14:37:17.051Z,18.02
2023-02-16T14:40:06.538Z,19.02
2023-02-16T14:42:34.715Z,18.40
2023-02-16T14:45:19.939Z,18.33
2023-02-16T14:48:07.158Z,19.75
2023-02-16T14:50:44.964Z,20.98
2023-02-16T14:53:57.872Z,19.08
2023-02-16T14:57:04.986Z,18.13
2023-02-16T14:59:45.992Z,19.10
2023-02-16T15:02:24.501Z,21.08
2023-02-16T15:04:50.996Z,20.40
2023-02-16T15:07:18.408Z,19.75
2023-02-16T15:09:45.873Z,19.60
2023-02-16T15:12:23.923Z,19.73
2023-02-16T15:15:02.009Z,21.33
2023-02-16T15:17:35.998Z,18.85
2023-02-16T15:20:34.307Z,19.30
2023-02-16T15:23:02.962Z,18.70
2023-02-16T15:25:38.400Z,21.35
2023-02-16T15:28:21.896Z,18.73
2023-02-16T15:30:51.151Z,20.33
2023-02-16T15:33:23.498Z,17.77
2023-02-16T15:35:56.859Z,18.58
2023-02-16T15:38:25.831Z,17.35
2023-02-16T15:40:57.711Z,18.88
2023-02-16T15:43:30.977Z,19.83
2023-02-16T15:45:59.031Z,17.88
2023-02-16T15:48:31.553Z,18.60
2023-02-16T15:51:02.688Z,18.63
2023-02-16T15:53:59.268Z,18.17
2023-02-16T15:57:12.653Z,18.95
2023-02-16T15:59:39.911Z,18.20
2023-02-16T16:02:06.315Z,21.27
2023-02-16T16:04:38.453Z,19.50
2023-02-16T16:07:08.316Z,18.27
2023-02-16T16:09:36.398Z,19.52
2023-02-16T16:12:08.364Z,18.02
2023-02-16T16:14:38.555Z,17.50
2023-02-16T16:17:08.841Z,16.85
2023-02-16T16:19:38.147Z,21.27
2023-02-16T16:22:30.232Z,17.92
2023-02-16T16:24:56.648Z,16.33
2023-02-16T16:27:36.638Z,20.17
2023-02-16T16:30:33.380Z,18.77
2023-02-16T16:33:06.368Z,18.02
2023-02-16T16:35:36.294Z,19.77
2023-02-16T16:38:04.392Z,18.90
2023-02-16T16:40:34.826Z,19.00
2023-02-16T16:43:07.410Z,19.00
2023-02-16T16:45:37.788Z,18.85
2023-02-16T16:48:20.304Z,20.88
2023-02-16T16:50:48.762Z,19.35
2023-02-16T16:53:30.634Z,20.10
2023-02-16T16:55:57.757Z,18.73
2023-02-16T16:58:24.194Z,18.30
2023-02-16T17:00:50.705Z,20.13
2023-02-16T17:03:18.078Z,16.95
2023-02-16T17:05:45.978Z,16.98
2023-02-16T17:08:12.530Z,17.40
2023-02-16T17:10:40.984Z,16.75
2023-02-16T17:13:07.975Z,17.92
2023-02-16T17:15:44.323Z,19.77
2023-02-16T17:18:16.505Z,21.75
2023-02-16T17:20:44.493Z,19.00
2023-02-16T17:23:16.337Z,17.48
2023-02-16T17:25:43.331Z,15.95
2023-02-16T17:28:11.151Z,16.73
2023-02-16T17:30:37.702Z,17.50
2023-02-16T17:33:04.227Z,20.73
2023-02-16T17:35:31.795Z,17.98
2023-02-16T17:37:58.582Z,18.08
2023-02-16T17:40:25.791Z,19.63
2023-02-16T17:42:52.299Z,15.95
2023-02-16T17:45:21.773Z,17.45
2023-02-16T17:47:50.932Z,17.83
2023-02-16T17:50:17.482Z,19.83
2023-02-16T17:52:44.699Z,19.15
2023-02-16T17:55:13.129Z,17.52
2023-02-16T17:57:40.201Z,18.13
2023-02-16T18:00:08.769Z,16.70
2023-02-16T18:02:35.482Z,19.67
2023-02-16T18:05:01.921Z,19.77
2023-02-16T18:07:28.367Z,18.65
2023-02-16T18:09:54.915Z,17.95
2023-02-16T18:12:21.516Z,24.25
2023-02-16T18:14:48.107Z,21.10
2023-02-16T18:17:14.704Z,22.00
2023-02-16T18:19:41.292Z,19.73
2023-02-16T18:22:07.812Z,17.08
2023-02-16T18:24:34.268Z,20.20
2023-02-16T18:27:00.793Z,21.25
2023-02-16T18:29:27.426Z,17.70
2023-02-16T18:31:54.018Z,18.33
2023-02-16T18:34:20.542Z,19.88
2023-02-16T18:36:47.121Z,17.25
2023-02-16T18:39:13.716Z,17.83
2023-02-16T18:41:40.379Z,18.42
2023-02-16T18:44:06.955Z,17.85
2023-02-16T18:46:33.662Z,19.98
2023-02-16T18:49:02.993Z,20.27
2023-02-16T18:51:32.121Z,17.15
2023-02-16T18:53:58.586Z,23.27
2023-02-16T18:56:25.705Z,16.33
2023-02-16T18:58:52.259Z,15.75
2023-02-16T19:01:30.645Z,19.05
2023-02-16T19:04:02.405Z,18.08
2023-02-16T19:06:29.208Z,16.02
2023-02-16T19:08:58.389Z,16.38
2023-02-16T19:11:25.580Z,18.23
2023-02-16T19:13:52.322Z,16.55
2023-02-16T19:16:18.836Z,19.95
2023-02-16T19:18:45.413Z,20.63
2023-02-16T19:21:13.949Z,17.85
2023-02-16T19:23:40.687Z,20.58
2023-02-16T19:26:09.424Z,20.45
2023-02-16T19:28:35.844Z,19.25
2023-02-16T19:31:05.042Z,18.23
2023-02-16T19:33:31.695Z,19.75
2023-02-16T19:36:06.705Z,18.45
2023-02-16T19:38:33.398Z,20.33
2023-02-16T19:41:00.321Z,17.13
2023-02-16T19:43:26.973Z,19.10
2023-02-16T19:45:53.515Z,16.98
2023-02-16T19:48:20.105Z,18.80
2023-02-16T19:50:47.010Z,18.60
2023-02-16T19:53:13.463Z,19.98
2023-02-16T19:55:42.189Z,17.77
2023-02-16T19:58:08.753Z,20.65
2023-02-16T20:00:37.020Z,21.05
2023-02-16T20:03:03.946Z,20.70
2023-02-16T20:05:30.563Z,18.98
2023-02-16T20:07:57.230Z,18.85
2023-02-16T20:10:23.763Z,16.23
2023-02-16T20:12:50.213Z,18.25
2023-02-16T20:15:16.914Z,19.35
2023-02-16T20:17:43.441Z,17.83
2023-02-16T20:20:10.224Z,16.23
2023-02-16T20:22:36.654Z,18.48
2023-02-16T20:25:03.359Z,15.18
2023-02-16T20:27:30.382Z,18.80
2023-02-16T20:29:56.894Z,17.38
2023-02-16T20:32:25.692Z,16.13
2023-02-16T20:34:52.538Z,19.65
2023-02-16T20:37:19.111Z,19.33
2023-02-16T20:39:46.149Z,16.27
2023-02-16T20:42:12.647Z,15.18
2023-02-16T20:44:40.484Z,17.75
2023-02-16T20:47:08.749Z,18.13
2023-02-16T20:49:35.237Z,17.95
2023-02-16T20:52:02.177Z,18.35
2023-02-16T20:54:28.721Z,17.23
2023-02-16T20:56:55.192Z,16.90
2023-02-16T20:59:21.609Z,15.35
2023-02-16T21:01:51.110Z,18.33
2023-02-16T21:04:19.444Z,15.65
2023-02-16T21:06:45.944Z,18.42
2023-02-16T21:09:12.602Z,17.70
2023-02-16T21:11:39.939Z,16.15
2023-02-16T21:14:08.647Z,18.67
2023-02-16T21:16:35.389Z,15.30
2023-02-16T21:19:05.618Z,17.70
2023-02-16T21:21:38.567Z,14.70
2023-02-16T21:24:05.262Z,17.52
2023-02-16T21:26:31.780Z,15.63
2023-02-16T21:28:58.217Z,14.77
2023-02-16T21:31:28.114Z,19.23
2023-02-16T21:33:54.835Z,17.92
2023-02-16T21:36:24.914Z,18.50
2023-02-16T21:38:51.674Z,18.33
2023-02-16T21:41:24.586Z,19.05
2023-02-16T21:44:13.094Z,20.90
2023-02-16T21:46:42.557Z,19.02
2023-02-16T21:49:15.479Z,17.85
2023-02-16T21:51:44.900Z,18.33
2023-02-16T21:54:14.784Z,17.40
2023-02-16T21:56:43.662Z,17.52
2023-02-16T21:59:13.302Z,21.67
2023-02-16T22:01:44.356Z,18.90
2023-02-16T22:04:13.091Z,18.10
2023-02-16T22:06:42.597Z,19.92
2023-02-16T22:09:14.881Z,19.55
2023-02-16T22:11:41.683Z,17.42
2023-02-16T22:14:08.128Z,15.63
2023-02-16T22:16:36.263Z,16.45
2023-02-16T22:19:13.927Z,16.58
2023-02-16T22:21:42.095Z,19.20
2023-02-16T22:24:12.558Z,16.80
2023-02-16T22:26:39.120Z,19.40
2023-02-16T22:29:07.150Z,16.10
2023-02-16T22:31:34.304Z,18.73
2023-02-16T22:34:11.763Z,16.45
2023-02-16T22:36:38.371Z,16.98
2023-02-16T22:39:05.012Z,17.17
2023-02-16T22:41:31.696Z,17.25
2023-02-16T22:44:01.619Z,20.00
2023-02-16T22:46:28.956Z,17.20
2023-02-16T22:48:58.374Z,19.50
2023-02-16T22:51:27.664Z,21.15
2023-02-16T22:53:54.120Z,20.67
2023-02-16T22:56:20.806Z,16.35
2023-02-16T22:58:47.737Z,18.42
2023-02-16T23:01:18.123Z,20.20
2023-02-16T23:03:53.502Z,20.23
2023-02-16T23:06:23.858Z,16.98
2023-02-16T23:08:55.670Z,21.15
2023-02-16T23:11:22.459Z,18.77
2023-02-16T23:13:49.066Z,16.92
2023-02-16T23:16:23.155Z,19.75
2023-02-16T23:18:50.573Z,19.67
2023-02-16T23:21:26.583Z,16.98
2023-02-16T23:23:53.771Z,17.13
2023-02-16T23:26:24.315Z,17.30
2023-02-16T23:28:52.914Z,16.75
2023-02-16T23:31:20.102Z,16.50
2023-02-16T23:33:47.057Z,15.52
2023-02-16T23:36:13.567Z,18.15
2023-02-16T23:38:40.018Z,18.52
2023-02-16T23:41:09.271Z,20.70
2023-02-16T23:43:35.833Z,19.60
2023-02-16T23:46:03.051Z,15.88
2023-02-16T23:48:30.263Z,17.63
2023-02-16T23:50:56.992Z,15.68
2023-02-16T23:53:25.517Z,16.75
2023-02-16T23:56:13.670Z,14.43
2023-02-16T23:58:42.601Z,15.60
